Time;durP1;ratioP1;P1;durP2;ratioP2;P2;SDS_P1;SDS_P2;PMS_P1;PMS_P2;Temp;Humidity;BMP_temperature;BMP_pressure;BME280_temperature;BME280_humidity;BME280_pressure;Samples;Min_cycle;Max_cycle;Signal;HPM_P1;HPM_P2
2023/02/27 00:01:52;;;;;;;4.90;3.15;;;;;;;0.44;100.00;102702.00;4994268;28;20070;-90
2023/02/27 00:04:18;;;;;;;9.05;3.85;;;;;;;0.51;100.00;102718.50;4992467;28;20113;-87
2023/02/27 00:06:43;;;;;;;9.75;4.03;;;;;;;0.31;100.00;102703.41;4976934;28;20077;-84
2023/02/27 00:09:12;;;;;;;2.40;2.20;;;;;;;0.25;100.00;102725.69;4976281;28;20045;-88
2023/02/27 00:11:38;;;;;;;10.55;4.20;;;;;;;0.04;100.00;102731.81;4994151;28;20058;-87
2023/02/27 00:14:04;;;;;;;6.85;3.83;;;;;;;-0.20;100.00;102728.34;4994138;28;20435;-88
2023/02/27 00:16:29;;;;;;;11.13;3.92;;;;;;;-0.37;100.00;102727.19;4975904;28;20418;-85
2023/02/27 00:19:01;;;;;;;8.60;3.65;;;;;;;-0.42;100.00;102738.81;4992790;28;20084;-83
2023/02/27 00:21:26;;;;;;;7.80;3.90;;;;;;;-0.78;100.00;102679.34;4992805;28;20097;-90
2023/02/27 00:23:54;;;;;;;8.93;3.10;;;;;;;-0.55;100.00;102730.50;4992487;28;20088;-84
2023/02/27 00:26:20;;;;;;;10.05;3.35;;;;;;;-0.69;100.00;102723.94;4997019;28;20100;-89
2023/02/27 00:28:45;;;;;;;8.50;3.85;;;;;;;-0.82;100.00;102727.03;4997087;28;20469;-87
2023/02/27 00:31:14;;;;;;;6.28;4.18;;;;;;;-1.02;100.00;102718.03;4996545;28;20041;-88
2023/02/27 00:33:40;;;;;;;11.68;3.42;;;;;;;-1.19;100.00;102723.91;4996199;28;20480;-84
2023/02/27 00:36:06;;;;;;;10.98;4.30;;;;;;;-1.33;100.00;102721.69;4996298;28;20047;-90
2023/02/27 00:38:31;;;;;;;7.28;3.90;;;;;;;-1.47;100.00;102723.94;4996381;28;20030;-88
2023/02/27 00:40:58;;;;;;;2.90;2.20;;;;;;;-1.59;100.00;102716.41;4995829;28;20520;-86
2023/02/27 00:43:24;;;;;;;11.35;4.50;;;;;;;-1.58;100.00;102729.56;4963950;28;20045;-89
2023/02/27 00:45:51;;;;;;;7.82;3.85;;;;;;;-1.67;100.00;102713.16;4997417;28;20408;-85
2023/02/27 00:48:17;;;;;;;6.78;2.67;;;;;;;-1.61;100.00;102715.63;4995772;28;20480;-85
2023/02/27 00:50:43;;;;;;;7.47;2.88;;;;;;;-1.32;100.00;102727.88;4980237;28;20070;-88
2023/02/27 00:53:12;;;;;;;6.03;3.50;;;;;;;-1.22;100.00;102694.09;4997108;28;20062;-88
2023/02/27 00:55:37;;;;;;;5.57;2.63;;;;;;;-0.88;100.00;102714.91;4980059;28;20034;-87
2023/02/27 00:58:04;;;;;;;9.13;4.07;;;;;;;-0.81;100.00;102719.06;4979224;28;20054;-83
2023/02/27 01:00:30;;;;;;;8.80;4.20;;;;;;;-0.85;100.00;102722.72;4979745;28;20039;-85
2023/02/27 01:02:56;;;;;;;10.20;3.42;;;;;;;-0.97;100.00;102725.81;4995790;28;20046;-86
2023/02/27 01:05:21;;;;;;;8.60;3.70;;;;;;;-1.11;100.00;102728.94;4996368;28;20034;-85
2023/02/27 01:07:47;;;;;;;7.10;3.72;;;;;;;-1.17;100.00;102740.53;4996695;28;20484;-81
2023/02/27 01:10:13;;;;;;;9.35;3.88;;;;;;;-1.19;100.00;102741.50;4996051;28;20389;-85
2023/02/27 01:12:40;;;;;;;7.07;3.53;;;;;;;-1.23;100.00;102717.00;4979705;28;20023;-81
2023/02/27 01:15:07;;;;;;;5.13;3.10;;;;;;;-0.70;100.00;102737.19;4995648;28;20632;-81
2023/02/27 01:17:36;;;;;;;5.50;2.60;;;;;;;-0.64;100.00;102693.84;4979600;28;20110;-83
2023/02/27 01:20:03;;;;;;;5.80;2.85;;;;;;;-0.42;100.00;102715.03;4996366;28;20022;-82
2023/02/27 01:22:29;;;;;;;8.70;4.18;;;;;;;-0.16;100.00;102740.50;4963230;28;20038;-82
2023/02/27 01:24:54;;;;;;;5.90;2.83;;;;;;;-0.03;100.00;102726.78;4995579;28;20041;-83
2023/02/27 01:27:20;;;;;;;8.02;4.32;;;;;;;-0.05;100.00;102733.91;4996219;28;20034;-83
2023/02/27 01:29:48;;;;;;;11.02;4.57;;;;;;;-0.29;100.00;102730.41;4996375;28;20474;-84
2023/02/27 01:32:16;;;;;;;5.82;3.88;;;;;;;-0.62;100.00;102721.06;4995185;28;20046;-84
2023/02/27 01:34:41;;;;;;;6.88;3.33;;;;;;;-0.91;100.00;102730.88;4995798;28;20397;-89
2023/02/27 01:37:07;;;;;;;9.23;4.47;;;;;;;-1.05;100.00;102722.56;4996397;28;20369;-85
2023/02/27 01:39:36;;;;;;;8.32;3.55;;;;;;;-1.29;100.00;102713.72;4995759;28;20030;-91
2023/02/27 01:42:02;;;;;;;4.40;3.00;;;;;;;-1.19;100.00;102723.03;4963429;28;20034;-82
2023/02/27 01:45:06;;;;;;;7.85;3.08;;;;;;;-1.07;100.00;102725.25;4963359;28;20124;-87
2023/02/27 01:47:34;;;;;;;5.60;3.38;;;;;;;-0.92;100.00;102735.28;4996207;28;20030;-83
2023/02/27 01:50:00;;;;;;;7.18;3.08;;;;;;;-0.72;100.00;102742.50;4978784;28;20034;-83
2023/02/27 01:52:26;;;;;;;8.73;3.15;;;;;;;-0.59;100.00;102735.00;4995027;28;20030;-86
2023/02/27 01:54:52;;;;;;;7.28;3.60;;;;;;;-0.50;100.00;102721.47;4994961;28;20045;-87
2023/02/27 01:57:20;;;;;;;5.82;2.40;;;;;;;-0.25;100.00;102726.72;4994695;28;20023;-89
2023/02/27 01:59:46;;;;;;;7.97;3.75;;;;;;;-0.11;100.00;102715.59;4994677;28;20034;-84
2023/02/27 02:02:17;;;;;;;5.75;3.38;;;;;;;0.05;100.00;102717.66;4994824;28;20032;-83
2023/02/27 02:04:43;;;;;;;9.70;3.25;;;;;;;0.37;100.00;102729.63;4962880;28;20049;-82
2023/02/27 02:07:12;;;;;;;5.50;2.03;;;;;;;0.69;100.00;102727.44;4994219;28;20081;-84
2023/02/27 02:09:44;;;;;;;7.25;2.90;;;;;;;1.00;100.00;102729.69;4962650;28;20472;-82
2023/02/27 02:12:13;;;;;;;14.00;3.75;;;;;;;1.12;100.00;102739.75;4962880;28;20034;-84
2023/02/27 02:14:38;;;;;;;10.68;4.47;;;;;;;0.98;100.00;102718.28;4962621;28;20053;-83
2023/02/27 02:17:23;;;;;;;15.13;2.95;;;;;;;1.02;100.00;102728.69;4994181;28;20354;-87
2023/02/27 02:20:10;;;;;;;3.00;1.63;;;;;;;1.08;100.00;102727.56;4978579;28;20073;-83
2023/02/27 02:22:50;;;;;;;6.80;3.78;;;;;;;1.25;100.00;102727.69;4978144;28;20089;-84
2023/02/27 02:25:53;;;;;;;7.47;3.33;;;;;;;1.39;100.00;102728.88;4994201;28;20034;-88
2023/02/27 02:28:43;;;;;;;4.78;2.53;;;;;;;1.63;100.00;102727.78;4995355;28;20026;-88
2023/02/27 02:31:12;;;;;;;5.78;3.15;;;;;;;1.67;100.00;102724.06;4994592;28;20038;-90
2023/02/27 02:33:50;;;;;;;9.10;4.18;;;;;;;1.50;100.00;102718.66;4995440;28;20030;-87
2023/02/27 02:36:43;;;;;;;5.80;2.67;;;;;;;1.25;100.00;102721.53;4978126;28;20077;-88
2023/02/27 02:39:27;;;;;;;6.50;3.65;;;;;;;1.10;100.00;102721.25;4993920;28;20404;-90
2023/02/27 02:42:02;;;;;;;4.85;2.75;;;;;;;0.94;100.00;102701.66;4995435;28;20030;-83
2023/02/27 02:44:40;;;;;;;5.03;3.28;;;;;;;0.95;100.00;102724.56;4978155;28;20089;-91
2023/02/27 02:47:32;;;;;;;9.02;4.10;;;;;;;0.91;100.00;102724.78;4976825;28;20524;-85
2023/02/27 02:50:14;;;;;;;3.70;2.80;;;;;;;0.91;100.00;102728.28;4978017;28;20129;-86
2023/02/27 02:53:04;;;;;;;10.15;3.90;;;;;;;0.97;100.00;102727.16;4961238;28;20037;-89
2023/02/27 02:55:34;;;;;;;6.15;3.53;;;;;;;0.91;100.00;102724.78;4962036;28;20120;-84
2023/02/27 02:58:09;;;;;;;5.30;2.90;;;;;;;0.79;100.00;102736.75;4995258;28;20026;-86
2023/02/27 03:00:40;;;;;;;4.22;2.53;;;;;;;0.77;100.00;102742.13;4993488;28;20034;-89
2023/02/27 03:03:27;;;;;;;3.33;3.10;;;;;;;0.85;100.00;102740.00;4961641;28;20405;-83
2023/02/27 03:05:57;;;;;;;11.40;3.83;;;;;;;0.97;100.00;102738.63;4961647;28;20045;-88
2023/02/27 03:08:30;;;;;;;4.80;2.95;;;;;;;0.96;100.00;102734.25;4976841;28;20034;-86
2023/02/27 03:11:02;;;;;;;5.28;2.85;;;;;;;1.09;100.00;102729.31;4961929;28;20037;-82
2023/02/27 03:13:34;;;;;;;2.80;1.95;;;;;;;1.22;100.00;102741.09;4993664;28;20065;-87
2023/02/27 03:16:19;;;;;;;7.50;4.00;;;;;;;1.34;100.00;102744.13;4960722;28;20477;-86
2023/02/27 03:19:00;;;;;;;14.10;6.63;;;;;;;1.35;100.00;102720.22;4961773;28;20064;-83
2023/02/27 03:21:35;;;;;;;5.53;3.40;;;;;;;1.57;100.00;102749.28;4993206;28;20027;-85
2023/02/27 03:24:03;;;;;;;6.22;3.70;;;;;;;1.56;100.00;102744.88;4961658;28;20030;-86
2023/02/27 03:26:35;;;;;;;3.97;2.38;;;;;;;1.58;100.00;102747.47;4945911;28;20505;-89
2023/02/27 03:29:13;;;;;;;11.98;3.55;;;;;;;1.52;100.00;102735.34;4977613;28;20034;-87
2023/02/27 03:31:53;;;;;;;6.15;3.22;;;;;;;1.60;100.00;102750.94;4961711;28;20031;-86
2023/02/27 03:34:22;;;;;;;9.27;3.60;;;;;;;1.57;100.00;102751.06;4993236;28;20041;-86
2023/02/27 03:37:13;;;;;;;7.97;3.28;;;;;;;1.74;100.00;102759.97;4992470;28;20112;-86
2023/02/27 03:39:50;;;;;;;5.25;3.28;;;;;;;1.86;100.00;102758.56;4994174;28;20030;-87
2023/02/27 03:42:35;;;;;;;3.70;2.28;;;;;;;1.95;100.00;102754.63;4993106;28;20034;-89
2023/02/27 03:45:09;;;;;;;3.63;2.17;;;;;;;2.05;100.00;102757.72;4976570;28;20034;-83
2023/02/27 03:47:34;;;;;;;10.23;4.07;;;;;;;2.07;100.00;102751.41;4977528;28;20552;-86
2023/02/27 03:50:07;;;;;;;6.72;3.15;;;;;;;2.11;100.00;102758.28;4993678;28;20129;-87
2023/02/27 03:52:33;;;;;;;7.30;3.33;;;;;;;2.17;100.00;102746.50;4960807;28;20058;-86
2023/02/27 03:55:07;;;;;;;4.25;3.20;;;;;;;2.22;100.00;102759.56;4993172;28;20154;-83
2023/02/27 03:57:36;;;;;;;8.68;3.17;;;;;;;2.16;100.00;102745.66;4977815;28;20038;-84
2023/02/27 04:00:06;;;;;;;13.57;4.70;;;;;;;2.16;100.00;102760.72;4994240;28;20121;-87
2023/02/27 04:02:32;;;;;;;6.82;3.33;;;;;;;2.05;100.00;102745.31;4980946;28;20066;-83
2023/02/27 04:04:58;;;;;;;5.10;2.53;;;;;;;2.04;100.00;102750.66;4964649;28;20069;-86
2023/02/27 04:07:28;;;;;;;12.55;3.75;;;;;;;2.13;100.00;102756.41;4997852;28;20532;-86
2023/02/27 04:10:04;;;;;;;6.47;3.63;;;;;;;2.17;100.00;102762.44;4964193;28;20092;-83
2023/02/27 04:13:05;;;;;;;10.93;3.08;;;;;;;2.24;100.00;102760.38;4997746;28;20038;-86
2023/02/27 04:16:05;;;;;;;8.57;3.92;;;;;;;2.30;100.00;102762.72;4956051;28;20058;-84
2023/02/27 04:18:34;;;;;;;3.22;1.75;;;;;;;2.33;100.00;102754.59;4981256;28;20034;-85
2023/02/27 04:21:09;;;;;;;8.23;4.30;;;;;;;2.27;100.00;102750.44;4981628;28;20066;-85
2023/02/27 04:23:42;;;;;;;4.05;2.88;;;;;;;2.31;100.00;102741.41;4965250;28;20030;-87
2023/02/27 04:26:24;;;;;;;3.75;2.17;;;;;;;2.30;100.00;102752.97;4997029;28;20492;-84
2023/02/27 04:29:02;;;;;;;6.57;3.15;;;;;;;2.22;100.00;102754.25;4964718;28;20484;-86
2023/02/27 04:31:53;;;;;;;8.95;3.78;;;;;;;2.03;100.00;102760.44;4997393;28;20038;-87
2023/02/27 04:34:38;;;;;;;7.13;4.05;;;;;;;1.97;100.00;102758.91;4980836;28;20031;-84
2023/02/27 04:37:10;;;;;;;5.32;2.63;;;;;;;1.96;100.00;102762.53;4997081;28;20030;-87
2023/02/27 04:39:43;;;;;;;9.18;4.55;;;;;;;1.92;100.00;102757.41;4964447;28;20045;-86
2023/02/27 04:42:14;;;;;;;5.18;2.63;;;;;;;1.85;100.00;102754.16;4980769;28;20050;-85
2023/02/27 04:44:40;;;;;;;5.72;2.95;;;;;;;1.75;100.00;102745.78;4996948;28;20465;-86
2023/02/27 04:47:07;;;;;;;14.88;4.35;;;;;;;1.67;100.00;102758.53;4964285;28;20034;-88
2023/02/27 04:49:46;;;;;;;10.23;3.60;;;;;;;1.52;100.00;102752.13;4964330;28;20044;-86
2023/02/27 04:52:20;;;;;;;7.50;3.53;;;;;;;1.48;100.00;102762.91;4980137;28;20473;-85
2023/02/27 04:54:51;;;;;;;8.50;2.92;;;;;;;1.31;100.00;102743.31;4948834;28;20274;-87
2023/02/27 04:57:24;;;;;;;7.18;2.65;;;;;;;1.35;100.00;102761.75;4965371;28;20061;-87
2023/02/27 04:59:54;;;;;;;6.97;4.53;;;;;;;1.30;100.00;102764.59;4965764;28;20034;-89
2023/02/27 05:02:36;;;;;;;9.88;3.65;;;;;;;1.26;100.00;102763.00;4964681;28;20038;-87
2023/02/27 05:05:07;;;;;;;8.02;3.95;;;;;;;1.21;100.00;102757.03;4964604;28;20465;-89
2023/02/27 05:08:00;;;;;;;7.00;4.05;;;;;;;1.10;100.00;102741.59;4979787;28;20072;-86
2023/02/27 05:10:28;;;;;;;10.48;3.90;;;;;;;1.18;100.00;102758.03;4996345;28;20042;-86
2023/02/27 05:13:33;;;;;;;4.45;3.03;;;;;;;1.13;100.00;102760.00;4996327;28;20050;-86
2023/02/27 05:16:31;;;;;;;4.68;2.53;;;;;;;1.02;100.00;102757.81;4905887;29;20064;-88
2023/02/27 05:18:58;;;;;;;8.30;4.00;;;;;;;0.74;100.00;102741.34;4979377;28;20485;-83
2023/02/27 05:21:37;;;;;;;7.80;4.13;;;;;;;0.74;100.00;102765.19;4963940;28;20039;-85
2023/02/27 05:24:11;;;;;;;2.72;2.13;;;;;;;0.59;100.00;102769.34;4963998;28;20035;-88
2023/02/27 05:27:14;;;;;;;8.15;3.03;;;;;;;0.48;100.00;102764.47;4980023;28;20052;-83
2023/02/27 05:30:00;;;;;;;4.80;2.80;;;;;;;0.37;100.00;102753.44;4963975;28;20023;-90
2023/02/27 05:32:45;;;;;;;5.65;2.35;;;;;;;0.38;100.00;102766.63;4979915;28;20033;-87
2023/02/27 05:35:17;;;;;;;4.45;2.28;;;;;;;0.28;100.00;102773.19;4995493;28;20076;-85
2023/02/27 05:37:48;;;;;;;3.13;2.28;;;;;;;0.18;100.00;102766.53;4996922;28;20030;-90
2023/02/27 05:40:18;;;;;;;6.10;3.47;;;;;;;0.18;100.00;102771.81;4995673;28;20034;-85
2023/02/27 05:42:49;;;;;;;4.57;2.65;;;;;;;0.12;100.00;102772.91;4964169;28;20035;-87
2023/02/27 05:45:19;;;;;;;8.35;3.17;;;;;;;0.09;100.00;102766.91;4979379;28;20035;-84
2023/02/27 05:47:51;;;;;;;8.00;3.22;;;;;;;0.03;100.00;102756.53;4979944;28;20038;-87
2023/02/27 05:50:22;;;;;;;3.85;2.60;;;;;;;0.10;100.00;102765.97;4963387;28;20046;-85
2023/02/27 05:52:49;;;;;;;4.60;2.65;;;;;;;0.04;100.00;102768.84;4979789;28;20030;-84
2023/02/27 05:55:22;;;;;;;8.38;4.20;;;;;;;-0.06;100.00;102769.19;4963017;28;20062;-86
2023/02/27 05:57:50;;;;;;;;;;;;;;;-0.17;100.00;102766.09;4963777;28;20038;-83
2023/02/27 06:00:23;;;;;;;14.90;3.53;;;;;;;-0.29;100.00;102748.91;4995548;28;19993;-82
2023/02/27 06:02:53;;;;;;;6.80;2.92;;;;;;;-0.23;100.00;102763.69;4962909;28;20034;-86
2023/02/27 06:05:19;;;;;;;4.57;2.55;;;;;;;-0.32;100.00;102764.00;4963883;28;20370;-91
2023/02/27 06:07:45;;;;;;;9.00;4.57;;;;;;;-0.42;100.00;102774.06;4996573;28;20125;-83
2023/02/27 06:10:16;;;;;;;7.72;3.50;;;;;;;-0.43;100.00;102771.47;4996851;28;20041;-83
2023/02/27 06:12:42;;;;;;;14.90;5.28;;;;;;;-0.55;100.00;102770.13;4963952;28;20026;-92
2023/02/27 06:15:13;;;;;;;1.92;1.77;;;;;;;-0.61;100.00;102765.91;4966443;28;20046;-86
2023/02/27 06:17:45;;;;;;;6.25;3.05;;;;;;;-0.64;100.00;102765.16;4996260;28;20031;-91
2023/02/27 06:20:11;;;;;;;3.60;2.38;;;;;;;-0.62;100.00;102755.41;4979214;28;20065;-84
2023/02/27 06:22:37;;;;;;;9.02;4.45;;;;;;;-0.49;100.00;102757.56;4994911;28;20448;-90
2023/02/27 06:25:03;;;;;;;8.35;3.58;;;;;;;-0.44;100.00;102760.03;4995571;28;20031;-84
2023/02/27 06:27:28;;;;;;;6.20;3.70;;;;;;;-0.57;100.00;102754.31;4995775;28;20027;-87
2023/02/27 06:29:54;;;;;;;6.88;4.25;;;;;;;-0.68;100.00;102777.63;4995652;28;20026;-87
2023/02/27 06:32:20;;;;;;;4.60;3.00;;;;;;;-0.97;100.00;102768.91;4962210;28;20034;-83
2023/02/27 06:34:46;;;;;;;5.57;3.35;;;;;;;-1.01;100.00;102774.34;4978205;28;20030;-81
2023/02/27 06:37:12;;;;;;;2.38;2.13;;;;;;;-1.16;100.00;102744.06;4995455;28;20527;-85
2023/02/27 06:39:37;;;;;;;3.03;2.60;;;;;;;-0.98;100.00;102771.59;4994129;28;20045;-85
2023/02/27 06:42:03;;;;;;;9.52;4.22;;;;;;;-1.03;100.00;102762.97;4995188;28;20030;-86
2023/02/27 06:44:29;;;;;;;10.48;2.65;;;;;;;-1.19;100.00;102755.59;4993987;28;20085;-86
2023/02/27 06:46:54;;;;;;;5.47;3.00;;;;;;;-1.03;100.00;102778.81;4994945;28;20033;-81
2023/02/27 06:49:20;;;;;;;6.70;2.80;;;;;;;-1.01;100.00;102783.13;4996593;28;20035;-82
2023/02/27 06:51:46;;;;;;;7.20;3.58;;;;;;;-1.07;100.00;102764.84;4995098;28;20110;-87
2023/02/27 06:54:12;;;;;;;4.28;2.40;;;;;;;-1.03;100.00;102765.59;4994900;28;20042;-84
2023/02/27 06:56:37;;;;;;;3.60;2.33;;;;;;;-0.96;100.00;102781.19;4995327;28;20068;-82
2023/02/27 06:59:03;;;;;;;8.23;3.47;;;;;;;-0.95;100.00;102764.47;4996343;28;20503;-85
2023/02/27 07:01:29;;;;;;;4.72;3.13;;;;;;;-0.80;100.00;102772.75;4978434;28;20042;-87
2023/02/27 07:03:54;;;;;;;5.03;2.25;;;;;;;-0.75;100.00;102768.19;4978349;28;20361;-85
2023/02/27 07:06:20;;;;;;;6.78;4.43;;;;;;;-0.75;100.00;102769.03;4995276;28;20473;-85
2023/02/27 07:08:46;;;;;;;7.95;2.83;;;;;;;-0.82;100.00;102769.31;4977649;28;20484;-85
2023/02/27 07:11:11;;;;;;;7.53;2.97;;;;;;;-0.89;100.00;102772.16;4993681;28;20484;-84
2023/02/27 07:13:39;;;;;;;7.22;4.22;;;;;;;-0.98;100.00;102776.88;4993402;28;20034;-81
2023/02/27 07:16:05;;;;;;;5.72;3.00;;;;;;;-1.20;100.00;102761.75;4994087;28;20491;-82
2023/02/27 07:18:31;;;;;;;7.45;3.63;;;;;;;-1.15;100.00;102785.38;4993792;28;20031;-85
2023/02/27 07:20:56;;;;;;;6.72;3.55;;;;;;;-1.18;100.00;102788.97;4976958;28;20085;-85
2023/02/27 07:23:22;;;;;;;1.67;1.58;;;;;;;-1.25;100.00;102781.31;4993397;28;20026;-84
2023/02/27 07:25:48;;;;;;;15.05;5.35;;;;;;;-1.15;100.00;102791.50;4994442;28;20109;-83
2023/02/27 07:28:14;;;;;;;6.80;4.10;;;;;;;-1.15;100.00;102796.78;4994643;28;20030;-81
2023/02/27 07:30:40;;;;;;;9.55;3.45;;;;;;;-1.23;100.00;102782.13;4960844;28;20034;-85
2023/02/27 07:33:08;;;;;;;6.70;4.00;;;;;;;-1.05;100.00;102800.00;4994388;28;20035;-82
2023/02/27 07:35:33;;;;;;;9.45;3.17;;;;;;;-0.91;100.00;102802.19;4994463;28;20073;-85
2023/02/27 07:37:59;;;;;;;6.50;2.42;;;;;;;-0.93;100.00;102786.41;4993187;28;20112;-82
2023/02/27 07:40:25;;;;;;;6.50;2.95;;;;;;;-0.76;100.00;102795.53;4993258;28;20380;-84
2023/02/27 07:42:50;;;;;;;3.42;2.15;;;;;;;-0.77;100.00;102805.19;4993368;28;20034;-86
2023/02/27 07:45:19;;;;;;;11.25;3.88;;;;;;;-0.72;100.00;102805.91;4994578;28;20052;-82
2023/02/27 07:47:45;;;;;;;8.80;3.65;;;;;;;-0.85;100.00;102779.97;4992967;28;20027;-81
2023/02/27 07:50:12;;;;;;;6.82;3.55;;;;;;;-0.69;100.00;102821.69;4994320;28;20081;-90
2023/02/27 07:52:42;;;;;;;1.52;1.42;;;;;;;-0.65;100.00;102822.44;4993058;28;20361;-86
2023/02/27 07:55:09;;;;;;;6.85;3.22;;;;;;;-0.50;100.00;102821.91;4977038;28;20030;-83
2023/02/27 07:57:35;;;;;;;2.45;1.98;;;;;;;-0.28;100.00;102818.50;4977012;28;20042;-87
2023/02/27 08:00:03;;;;;;;4.78;3.58;;;;;;;-0.16;100.00;102807.50;4977071;28;20385;-85
2023/02/27 08:02:29;;;;;;;5.45;2.90;;;;;;;0.12;100.00;102812.59;4960930;28;20451;-81
2023/02/27 08:04:54;;;;;;;7.88;4.20;;;;;;;0.33;100.00;102824.16;4993153;28;20073;-83
2023/02/27 08:07:20;;;;;;;11.25;3.97;;;;;;;0.61;100.00;102823.09;4992438;28;20029;-86
2023/02/27 08:09:46;;;;;;;6.60;4.57;;;;;;;0.76;100.00;102819.81;4976669;28;20042;-91
2023/02/27 08:12:11;;;;;;;12.43;3.35;;;;;;;0.84;100.00;102801.81;4993855;28;20465;-80
2023/02/27 08:14:37;;;;;;;5.03;2.88;;;;;;;0.98;100.00;102795.97;4994013;28;20034;-86
2023/02/27 08:17:03;;;;;;;10.90;4.43;;;;;;;1.22;100.00;102817.09;4992556;28;20042;-81
2023/02/27 08:19:28;;;;;;;7.80;3.58;;;;;;;1.23;100.00;102810.84;4993784;28;20362;-81
2023/02/27 08:21:54;;;;;;;5.18;3.42;;;;;;;1.41;100.00;102825.09;4992993;28;20128;-86
2023/02/27 08:24:20;;;;;;;4.57;3.25;;;;;;;1.41;100.00;102812.72;4992908;28;20120;-83
2023/02/27 08:26:46;;;;;;;18.83;3.65;;;;;;;1.50;100.00;102835.31;4994071;28;20117;-80
2023/02/27 08:29:11;;;;;;;5.80;3.47;;;;;;;1.81;100.00;102824.22;4993645;28;20030;-89
2023/02/27 08:31:37;;;;;;;9.75;3.72;;;;;;;1.89;100.00;102832.69;4992713;28;20027;-84
2023/02/27 08:34:03;;;;;;;10.20;4.25;;;;;;;2.04;100.00;102831.16;4992903;28;20027;-83
2023/02/27 08:36:29;;;;;;;5.53;2.60;;;;;;;2.04;100.00;102819.66;4993828;28;20688;-84
2023/02/27 08:38:54;;;;;;;5.40;3.28;;;;;;;2.93;100.00;102831.41;4993815;28;20029;-81
2023/02/27 08:41:21;;;;;;;3.38;2.38;;;;;;;3.44;100.00;102819.06;4976694;28;20034;-84
2023/02/27 08:43:48;;;;;;;6.60;3.70;;;;;;;3.75;100.00;102826.31;4992817;28;20121;-84
2023/02/27 08:46:14;;;;;;;11.73;4.45;;;;;;;4.24;100.00;102806.88;4977578;28;20121;-90
2023/02/27 08:48:41;;;;;;;5.15;3.75;;;;;;;5.54;100.00;102826.03;4996302;28;20030;-84
2023/02/27 08:51:08;;;;;;;7.63;4.07;;;;;;;6.55;99.80;102832.25;4998186;28;20045;-85
2023/02/27 08:53:34;;;;;;;8.77;3.25;;;;;;;7.43;93.24;102830.00;5002019;28;20030;-81
2023/02/27 08:56:00;;;;;;;7.90;3.75;;;;;;;8.30;89.97;102831.91;5002537;28;20034;-87
2023/02/27 08:58:27;;;;;;;3.10;2.25;;;;;;;9.03;85.61;102840.94;4995943;28;20492;-83
2023/02/27 09:00:53;;;;;;;8.10;3.40;;;;;;;9.42;82.45;102829.00;4995804;28;20070;-85
2023/02/27 09:03:20;;;;;;;8.07;3.55;;;;;;;8.28;84.80;102844.59;4995796;28;20037;-86
2023/02/27 09:05:48;;;;;;;5.72;3.40;;;;;;;7.69;88.52;102837.09;4995846;28;20056;-89
2023/02/27 09:08:14;;;;;;;7.60;4.13;;;;;;;8.99;79.97;102839.44;4979863;28;20026;-86
2023/02/27 09:10:40;;;;;;;5.57;3.63;;;;;;;9.72;78.13;102846.41;4997151;28;20118;-88
2023/02/27 09:13:06;;;;;;;4.07;3.33;;;;;;;10.63;73.27;102850.00;4996380;28;20105;-88
2023/02/27 09:15:36;;;;;;;5.20;3.33;;;;;;;11.16;71.07;102842.00;4997012;28;20093;-89
2023/02/27 09:18:05;;;;;;;4.65;2.72;;;;;;;11.48;67.18;102849.22;4963923;28;20034;-84
2023/02/27 09:20:35;;;;;;;5.72;3.55;;;;;;;11.89;66.71;102848.41;4978540;28;20053;-81
2023/02/27 09:23:01;;;;;;;7.97;3.47;;;;;;;12.08;64.39;102828.75;4995474;28;20046;-81
2023/02/27 09:25:27;;;;;;;9.15;2.88;;;;;;;12.66;63.30;102842.44;4995143;28;20034;-82
2023/02/27 09:27:53;;;;;;;7.63;3.72;;;;;;;12.92;62.82;102850.03;4978902;28;20037;-81
2023/02/27 09:30:19;;;;;;;12.52;3.58;;;;;;;13.15;58.95;102835.25;4996492;28;20034;-82
2023/02/27 09:32:45;;;;;;;8.13;3.05;;;;;;;13.21;56.60;102844.66;4994748;28;20034;-81
2023/02/27 09:35:10;;;;;;;3.97;2.50;;;;;;;13.51;58.51;102854.47;4962905;28;20031;-82
2023/02/27 09:37:36;;;;;;;6.88;2.70;;;;;;;13.79;55.17;102858.13;4963188;28;20149;-81
2023/02/27 09:40:04;;;;;;;5.22;2.92;;;;;;;13.80;51.67;102850.84;4994973;28;20122;-81
2023/02/27 09:42:35;;;;;;;7.50;3.60;;;;;;;13.57;55.26;102850.31;4994832;28;20455;-81
2023/02/27 09:45:05;;;;;;;7.95;3.17;;;;;;;14.02;55.45;102860.47;4977582;28;20026;-81
2023/02/27 09:47:36;;;;;;;4.97;3.17;;;;;;;14.31;54.74;102857.66;4962852;28;20077;-81
2023/02/27 09:50:02;;;;;;;6.22;3.03;;;;;;;14.82;51.25;102859.00;4978364;28;20034;-81
2023/02/27 09:52:30;;;;;;;10.55;3.55;;;;;;;14.61;49.38;102850.28;4995652;28;20089;-82
2023/02/27 09:54:56;;;;;;;11.68;3.63;;;;;;;14.67;51.64;102858.66;4978860;28;20038;-82
2023/02/27 09:57:40;;;;;;;5.15;3.30;;;;;;;14.95;47.85;102864.91;4995589;28;20030;-83
2023/02/27 10:00:48;;;;;;;3.72;2.88;;;;;;;14.75;47.03;102867.88;4977841;28;20045;-81
2023/02/27 10:03:58;;;;;;;4.65;2.65;;;;;;;15.16;47.35;102867.31;4968547;28;20042;-83
2023/02/27 10:06:25;;;;;;;5.95;3.42;;;;;;;15.14;47.94;102858.47;4963785;28;20042;-83
2023/02/27 10:09:18;;;;;;;6.10;3.10;;;;;;;15.14;48.18;102865.75;4978456;28;20495;-84
2023/02/27 10:12:02;;;;;;;;;;;;;;;15.66;46.85;102875.84;4978643;28;20053;-82
2023/02/27 10:14:51;;;;;;;5.30;3.13;;;;;;;16.24;47.00;102876.09;4995407;28;19980;-84
2023/02/27 10:17:28;;;;;;;7.20;4.43;;;;;;;16.46;43.36;102866.53;4978608;28;20069;-84
2023/02/27 10:19:53;;;;;;;12.90;7.60;;;;;;;16.49;42.98;102877.06;4962286;28;20030;-83
2023/02/27 10:22:30;;;;;;;10.48;2.95;;;;;;;16.86;41.26;102877.75;4994056;28;20060;-83
2023/02/27 10:25:02;;;;;;;3.35;2.30;;;;;;;17.04;39.86;102875.75;4961951;28;20381;-83
2023/02/27 10:27:29;;;;;;;3.67;2.33;;;;;;;17.31;40.38;102877.28;4994213;28;20026;-84
2023/02/27 10:30:14;;;;;;;4.50;2.53;;;;;;;17.39;38.46;102878.34;4994143;28;20088;-84
2023/02/27 10:32:41;;;;;;;5.18;2.17;;;;;;;17.45;37.47;102866.78;4961731;28;20033;-83
2023/02/27 10:35:26;;;;;;;2.25;1.70;;;;;;;17.84;36.50;102885.16;4962163;28;20050;-83
2023/02/27 10:37:57;;;;;;;7.40;2.58;;;;;;;18.17;34.39;102875.03;4977875;28;20405;-84
2023/02/27 10:40:23;;;;;;;4.75;2.20;;;;;;;17.62;35.39;102881.19;4994119;28;20085;-78
2023/02/27 10:42:51;;;;;;;2.28;1.90;;;;;;;18.35;33.68;102888.41;4977011;28;20034;-78
2023/02/27 10:45:16;;;;;;;3.45;2.08;;;;;;;18.33;32.91;102879.56;4961263;28;20172;-77
2023/02/27 10:47:44;;;;;;;4.65;1.55;;;;;;;17.12;35.12;102885.75;4961068;28;20125;-78
2023/02/27 10:50:25;;;;;;;4.43;1.83;;;;;;;16.31;36.28;102872.75;4993519;28;20026;-77
2023/02/27 10:52:54;;;;;;;4.28;2.15;;;;;;;16.07;38.34;102895.16;4975498;28;20030;-79
2023/02/27 10:55:25;;;;;;;5.32;2.78;;;;;;;17.25;37.21;102891.56;4975411;28;20042;-77
2023/02/27 10:57:54;;;;;;;7.15;2.20;;;;;;;18.12;34.48;102891.03;4960099;28;20052;-76
2023/02/27 11:00:44;;;;;;;3.67;1.77;;;;;;;18.04;34.54;102907.38;4993633;28;20042;-78
2023/02/27 11:03:22;;;;;;;2.53;1.50;;;;;;;16.75;35.99;102897.00;4977609;28;20038;-76
2023/02/27 11:05:56;;;;;;;1.98;1.35;;;;;;;15.54;37.33;102897.78;4977508;28;20038;-77
2023/02/27 11:08:35;;;;;;;3.03;1.50;;;;;;;14.59;39.06;102899.16;4976463;28;20362;-77
2023/02/27 11:11:08;;;;;;;3.50;1.60;;;;;;;13.90;40.97;102916.59;4975590;28;20110;-79
2023/02/27 11:13:39;;;;;;;2.47;1.58;;;;;;;12.97;43.17;102908.03;4975235;28;20473;-79
2023/02/27 11:16:16;;;;;;;3.83;1.63;;;;;;;12.28;45.08;102895.28;4959555;28;20069;-79
2023/02/27 11:18:44;;;;;;;1.95;1.23;;;;;;;12.20;46.34;102895.13;4959368;28;20642;-83
2023/02/27 11:21:15;;;;;;;2.47;1.75;;;;;;;11.84;47.35;102901.81;4975061;28;20041;-81
2023/02/27 11:23:56;;;;;;;9.98;2.15;;;;;;;11.52;47.65;102908.09;4992414;28;20034;-81
2023/02/27 11:26:29;;;;;;;5.65;1.83;;;;;;;11.17;47.95;102900.28;4992064;28;20026;-81
2023/02/27 11:29:18;;;;;;;4.57;1.73;;;;;;;11.00;48.91;102897.13;4977114;28;20062;-81
2023/02/27 11:31:54;;;;;;;6.22;2.00;;;;;;;10.76;49.49;102901.84;4993879;28;20109;-81
2023/02/27 11:34:25;;;;;;;3.95;1.95;;;;;;;11.35;48.48;102876.34;4993791;28;20097;-81
2023/02/27 11:36:55;;;;;;;3.40;2.25;;;;;;;11.71;48.02;102904.69;4993153;28;20042;-81
2023/02/27 11:39:26;;;;;;;8.00;2.80;;;;;;;11.41;49.13;102890.16;4945078;28;20436;-84
2023/02/27 11:41:54;;;;;;;4.20;2.15;;;;;;;11.00;49.65;102902.50;4993083;28;20038;-82